Hauptseite
METAR-TAF:

METAR-TAF

Flughäfen :

Flughafen Kilimanjaro

Kilimandscharo, Tansania

Breite: 03-25S, Länge: 037-04E, Höhe: 891 m

Beobachtung

Neuester Wetterbericht von vor 59 Minuten, um 01:00 UTC
Wind 5 kt aus Nord
Temperatur 19°C
Luftfeuchtigkeit 94%
Luftdruck 1017 hPa
Sichtweite 10 km oder mehr
Aufgelockert bewölkt in der Höhe von 2200 ft

METAR: HTKJ 160100Z 01005KT 9999 SCT022 19/18 Q1017 NOSIG

Zeit: 04:59 (01:59 UTC)

Prognose

Neuester Wetterbericht von vor 2 Stunden und 59 Minuten, um 23:00 UTC
Gültige Prognose vom 16 um 00 UTC bis 16 um 24 UTC
Wind 5 kt aus Ost
Sichtweite 10 km oder mehr
Durchbrochene Bewölkung in der Höhe von 2400 ft
Übergehend zu
vom 16 um 10 UTC bis 16 um 12 UTC
Leicht bewölkt in der Höhe von 2800 ft, Kumulonimbus.
Aufgelockert bewölkt in der Höhe von 3000 ft

TAF: HTKJ 152300Z 1600/1624 09005KT 9999 BKN024 BECMG 1610/1612 FEW028CB SCT030

Wetterbeobachtungen und Prognosen von mehr als 4000 Flughäfen (METAR und TAF Bericht).

Die verfügbaren Stationen werden durch gelbe und rote Markierungen auf der Karte dargestellt.

Führen Sie die Maus auf sie, um den Namen der Station zu sehen.

Darauf klicken, um die Beobachtung von Wetterbeobachtungen und Prognosen zu sehen.

Um die Karte zu ändern : klicken Sie auf den grünen Tasten mit einem schwarzen Kreuz Zum Vergrößern, auf den grünen Button mit einem Gedankenstrich zu verkleinern, oder auf die grünen Pfeile für benachbarte Karten.


METAR-TAF: